sensor_id;sensor_type;location;lat;lon;timestamp;pressure;altitude;pressure_sealevel;temperature;humidity
48244;BME280;34053;51.088;6.572;2023-02-10T00:00:11;102989.00;;;3.79;72.20
48244;BME280;34053;51.088;6.572;2023-02-10T00:02:42;102984.97;;;3.87;71.89
48244;BME280;34053;51.088;6.572;2023-02-10T00:05:12;102983.41;;;3.92;70.85
48244;BME280;34053;51.088;6.572;2023-02-10T00:07:43;102989.47;;;3.93;71.40
48244;BME280;34053;51.088;6.572;2023-02-10T00:10:13;102995.44;;;3.90;72.11
48244;BME280;34053;51.088;6.572;2023-02-10T00:12:44;102982.63;;;3.95;72.30
48244;BME280;34053;51.088;6.572;2023-02-10T00:15:14;102974.31;;;3.81;73.00
48244;BME280;34053;51.088;6.572;2023-02-10T00:17:45;102988.38;;;3.86;72.23
48244;BME280;34053;51.088;6.572;2023-02-10T00:20:15;102994.09;;;3.77;73.57
48244;BME280;34053;51.088;6.572;2023-02-10T00:22:46;102992.59;;;3.83;72.60
48244;BME280;34053;51.088;6.572;2023-02-10T00:25:16;102994.56;;;3.90;72.14
48244;BME280;34053;51.088;6.572;2023-02-10T00:27:47;102996.56;;;3.97;70.82
48244;BME280;34053;51.088;6.572;2023-02-10T00:30:17;103002.75;;;4.01;71.13
48244;BME280;34053;51.088;6.572;2023-02-10T00:32:48;103001.44;;;4.12;70.52
48244;BME280;34053;51.088;6.572;2023-02-10T00:35:18;102996.47;;;4.18;70.47
48244;BME280;34053;51.088;6.572;2023-02-10T00:37:49;102996.34;;;4.15;69.78
48244;BME280;34053;51.088;6.572;2023-02-10T00:40:19;103002.44;;;4.16;70.24
48244;BME280;34053;51.088;6.572;2023-02-10T00:42:50;102994.56;;;4.14;70.20
48244;BME280;34053;51.088;6.572;2023-02-10T00:45:20;103002.53;;;4.19;70.07
48244;BME280;34053;51.088;6.572;2023-02-10T00:47:51;103003.31;;;4.16;70.08
48244;BME280;34053;51.088;6.572;2023-02-10T00:50:21;103008.63;;;4.19;69.71
48244;BME280;34053;51.088;6.572;2023-02-10T00:52:55;103012.09;;;4.20;69.08
48244;BME280;34053;51.088;6.572;2023-02-10T00:55:25;103007.97;;;4.25;69.18
48244;BME280;34053;51.088;6.572;2023-02-10T00:57:56;103009.50;;;4.20;69.72
48244;BME280;34053;51.088;6.572;2023-02-10T01:00:26;102996.63;;;4.23;69.71
48244;BME280;34053;51.088;6.572;2023-02-10T01:02:57;103003.09;;;4.10;72.30
48244;BME280;34053;51.088;6.572;2023-02-10T01:05:27;103002.09;;;4.06;73.02
48244;BME280;34053;51.088;6.572;2023-02-10T01:07:58;102995.47;;;4.15;71.23
48244;BME280;34053;51.088;6.572;2023-02-10T01:10:28;102997.09;;;4.11;71.62
48244;BME280;34053;51.088;6.572;2023-02-10T01:12:59;103004.50;;;4.00;73.54
48244;BME280;34053;51.088;6.572;2023-02-10T01:15:30;103011.09;;;3.92;73.82
48244;BME280;34053;51.088;6.572;2023-02-10T01:18:01;103019.66;;;3.89;74.18
48244;BME280;34053;51.088;6.572;2023-02-10T01:20:31;103018.00;;;3.91;73.75
48244;BME280;34053;51.088;6.572;2023-02-10T01:23:02;103021.53;;;3.93;73.83
48244;BME280;34053;51.088;6.572;2023-02-10T01:25:34;103025.97;;;3.96;73.83
48244;BME280;34053;51.088;6.572;2023-02-10T01:28:05;103026.28;;;4.04;73.42
48244;BME280;34053;51.088;6.572;2023-02-10T01:30:36;103032.81;;;3.94;73.91
48244;BME280;34053;51.088;6.572;2023-02-10T01:33:07;103032.06;;;3.97;73.72
48244;BME280;34053;51.088;6.572;2023-02-10T01:35:37;103024.09;;;3.92;74.98
48244;BME280;34053;51.088;6.572;2023-02-10T01:38:09;103034.59;;;3.95;73.72
48244;BME280;34053;51.088;6.572;2023-02-10T01:40:39;103040.34;;;3.86;74.80
48244;BME280;34053;51.088;6.572;2023-02-10T01:43:14;103039.00;;;3.98;73.17
48244;BME280;34053;51.088;6.572;2023-02-10T01:45:45;103039.69;;;3.92;74.26
48244;BME280;34053;51.088;6.572;2023-02-10T01:48:16;103037.00;;;3.90;75.18
48244;BME280;34053;51.088;6.572;2023-02-10T01:50:51;103031.94;;;3.93;74.11
48244;BME280;34053;51.088;6.572;2023-02-10T01:53:24;103036.53;;;4.01;73.57
48244;BME280;34053;51.088;6.572;2023-02-10T01:55:56;103034.31;;;4.12;72.92
48244;BME280;34053;51.088;6.572;2023-02-10T01:58:29;103038.91;;;4.19;72.37
48244;BME280;34053;51.088;6.572;2023-02-10T02:01:01;103039.44;;;4.08;72.81
48244;BME280;34053;51.088;6.572;2023-02-10T02:03:31;103041.41;;;3.93;74.39
48244;BME280;34053;51.088;6.572;2023-02-10T02:06:02;103049.28;;;3.94;74.77
48244;BME280;34053;51.088;6.572;2023-02-10T02:08:32;103052.16;;;4.02;73.78
48244;BME280;34053;51.088;6.572;2023-02-10T02:11:41;103055.94;;;4.10;72.96
48244;BME280;34053;51.088;6.572;2023-02-10T02:14:36;103051.69;;;4.13;72.88
48244;BME280;34053;51.088;6.572;2023-02-10T02:17:19;103051.81;;;4.16;73.48
48244;BME280;34053;51.088;6.572;2023-02-10T02:20:58;103056.66;;;4.06;73.25
48244;BME280;34053;51.088;6.572;2023-02-10T02:32:06;103056.84;;;4.11;73.59
48244;BME280;34053;51.088;6.572;2023-02-10T02:34:59;103066.31;;;4.10;73.68
48244;BME280;34053;51.088;6.572;2023-02-10T02:37:46;103062.69;;;4.05;73.42
48244;BME280;34053;51.088;6.572;2023-02-10T02:40:17;103060.22;;;4.08;73.20
48244;BME280;34053;51.088;6.572;2023-02-10T02:42:47;103064.34;;;4.03;74.00
48244;BME280;34053;51.088;6.572;2023-02-10T02:45:40;103070.66;;;4.10;73.25
48244;BME280;34053;51.088;6.572;2023-02-10T02:48:22;103064.94;;;3.96;74.92
48244;BME280;34053;51.088;6.572;2023-02-10T02:51:11;103065.53;;;3.89;75.25
48244;BME280;34053;51.088;6.572;2023-02-10T02:56:34;103061.63;;;3.77;75.48
48244;BME280;34053;51.088;6.572;2023-02-10T03:01:52;103071.28;;;3.80;75.24
48244;BME280;34053;51.088;6.572;2023-02-10T03:04:30;103075.19;;;3.93;74.27
48244;BME280;34053;51.088;6.572;2023-02-10T03:07:02;103076.28;;;3.98;74.02
48244;BME280;34053;51.088;6.572;2023-02-10T03:09:33;103086.53;;;3.95;74.00
48244;BME280;34053;51.088;6.572;2023-02-10T03:12:04;103077.78;;;3.93;74.29
48244;BME280;34053;51.088;6.572;2023-02-10T03:14:35;103076.56;;;3.83;74.91
48244;BME280;34053;51.088;6.572;2023-02-10T03:17:05;103078.81;;;3.97;73.67
48244;BME280;34053;51.088;6.572;2023-02-10T03:19:36;103066.56;;;3.94;73.66
48244;BME280;34053;51.088;6.572;2023-02-10T03:22:06;103064.09;;;3.97;73.21
48244;BME280;34053;51.088;6.572;2023-02-10T03:24:37;103071.44;;;4.07;72.65
48244;BME280;34053;51.088;6.572;2023-02-10T03:27:08;103060.69;;;3.98;72.87
48244;BME280;34053;51.088;6.572;2023-02-10T03:29:38;103053.84;;;4.00;72.54
48244;BME280;34053;51.088;6.572;2023-02-10T03:32:09;103042.84;;;4.07;71.88
48244;BME280;34053;51.088;6.572;2023-02-10T03:34:39;103045.44;;;4.07;71.73
48244;BME280;34053;51.088;6.572;2023-02-10T03:37:11;103026.66;;;4.15;71.76
48244;BME280;34053;51.088;6.572;2023-02-10T03:39:42;103028.03;;;4.05;72.25
48244;BME280;34053;51.088;6.572;2023-02-10T03:42:12;103020.25;;;4.05;71.86
48244;BME280;34053;51.088;6.572;2023-02-10T03:44:43;103014.97;;;4.03;71.91
48244;BME280;34053;51.088;6.572;2023-02-10T03:47:13;103009.13;;;4.09;70.89
48244;BME280;34053;51.088;6.572;2023-02-10T03:49:44;103020.28;;;4.06;70.85
48244;BME280;34053;51.088;6.572;2023-02-10T03:52:14;103022.16;;;4.10;71.50
48244;BME280;34053;51.088;6.572;2023-02-10T03:54:45;103027.31;;;4.09;70.93
48244;BME280;34053;51.088;6.572;2023-02-10T03:57:15;103031.94;;;4.18;70.68
48244;BME280;34053;51.088;6.572;2023-02-10T03:59:46;103037.88;;;4.14;70.23
48244;BME280;34053;51.088;6.572;2023-02-10T04:02:17;103044.94;;;4.18;70.08
48244;BME280;34053;51.088;6.572;2023-02-10T04:04:47;103045.78;;;4.17;70.40
48244;BME280;34053;51.088;6.572;2023-02-10T04:07:18;103050.75;;;4.10;69.95
48244;BME280;34053;51.088;6.572;2023-02-10T04:09:48;103049.13;;;4.14;70.21
48244;BME280;34053;51.088;6.572;2023-02-10T04:12:19;103048.97;;;4.09;69.83
48244;BME280;34053;51.088;6.572;2023-02-10T04:14:49;103056.06;;;4.14;69.50
48244;BME280;34053;51.088;6.572;2023-02-10T04:17:20;103062.81;;;4.08;69.42
48244;BME280;34053;51.088;6.572;2023-02-10T04:19:50;103056.75;;;4.09;70.00
48244;BME280;34053;51.088;6.572;2023-02-10T04:22:21;103060.38;;;4.13;68.94
48244;BME280;34053;51.088;6.572;2023-02-10T04:24:51;103061.91;;;4.08;69.42
48244;BME280;34053;51.088;6.572;2023-02-10T04:27:22;103075.69;;;4.05;69.48
48244;BME280;34053;51.088;6.572;2023-02-10T04:29:52;103070.44;;;4.04;69.75
48244;BME280;34053;51.088;6.572;2023-02-10T04:32:23;103069.53;;;4.03;68.55
48244;BME280;34053;51.088;6.572;2023-02-10T04:34:54;103066.09;;;4.04;68.49
48244;BME280;34053;51.088;6.572;2023-02-10T04:37:24;103063.28;;;3.98;68.46
48244;BME280;34053;51.088;6.572;2023-02-10T04:39:55;103067.66;;;3.99;68.72
48244;BME280;34053;51.088;6.572;2023-02-10T04:42:25;103067.53;;;3.96;68.20
48244;BME280;34053;51.088;6.572;2023-02-10T04:44:59;103071.59;;;3.89;68.39
48244;BME280;34053;51.088;6.572;2023-02-10T04:47:30;103069.06;;;3.91;68.79
48244;BME280;34053;51.088;6.572;2023-02-10T04:50:01;103066.41;;;3.89;67.99
48244;BME280;34053;51.088;6.572;2023-02-10T04:52:32;103073.97;;;3.83;68.39
48244;BME280;34053;51.088;6.572;2023-02-10T04:55:02;103077.47;;;3.84;68.03
48244;BME280;34053;51.088;6.572;2023-02-10T04:57:33;103090.53;;;3.87;67.33
48244;BME280;34053;51.088;6.572;2023-02-10T05:00:04;103093.78;;;3.81;67.37
48244;BME280;34053;51.088;6.572;2023-02-10T05:02:35;103094.56;;;3.78;67.33
48244;BME280;34053;51.088;6.572;2023-02-10T05:05:06;103084.16;;;3.78;67.50
48244;BME280;34053;51.088;6.572;2023-02-10T05:07:37;103083.16;;;3.75;68.26
48244;BME280;34053;51.088;6.572;2023-02-10T05:10:07;103086.34;;;3.68;67.83
48244;BME280;34053;51.088;6.572;2023-02-10T05:12:38;103079.44;;;3.68;67.17
48244;BME280;34053;51.088;6.572;2023-02-10T05:15:08;103082.63;;;3.61;67.35
48244;BME280;34053;51.088;6.572;2023-02-10T05:17:40;103079.00;;;3.57;67.53
48244;BME280;34053;51.088;6.572;2023-02-10T05:20:10;103078.91;;;3.54;67.20
48244;BME280;34053;51.088;6.572;2023-02-10T05:22:41;103077.91;;;3.51;67.50
48244;BME280;34053;51.088;6.572;2023-02-10T05:25:11;103082.09;;;3.47;67.13
48244;BME280;34053;51.088;6.572;2023-02-10T05:27:42;103075.03;;;3.44;66.82
48244;BME280;34053;51.088;6.572;2023-02-10T05:30:12;103076.72;;;3.42;67.13
48244;BME280;34053;51.088;6.572;2023-02-10T05:32:43;103068.53;;;3.33;67.53
48244;BME280;34053;51.088;6.572;2023-02-10T05:35:14;103072.91;;;3.34;66.98
48244;BME280;34053;51.088;6.572;2023-02-10T05:37:44;103071.91;;;3.30;67.51
48244;BME280;34053;51.088;6.572;2023-02-10T05:40:15;103083.97;;;3.30;67.18
48244;BME280;34053;51.088;6.572;2023-02-10T05:42:45;103087.63;;;3.35;67.27
48244;BME280;34053;51.088;6.572;2023-02-10T05:45:16;103085.50;;;3.25;67.39
48244;BME280;34053;51.088;6.572;2023-02-10T05:47:46;103091.63;;;3.27;66.95
48244;BME280;34053;51.088;6.572;2023-02-10T05:50:17;103085.63;;;3.28;66.96
48244;BME280;34053;51.088;6.572;2023-02-10T05:52:48;103092.28;;;3.21;67.12
48244;BME280;34053;51.088;6.572;2023-02-10T05:55:19;103091.28;;;3.18;67.08
48244;BME280;34053;51.088;6.572;2023-02-10T05:57:51;103086.00;;;3.16;66.83
48244;BME280;34053;51.088;6.572;2023-02-10T06:00:22;103092.97;;;3.17;66.95
48244;BME280;34053;51.088;6.572;2023-02-10T06:02:52;103097.34;;;3.18;66.56
48244;BME280;34053;51.088;6.572;2023-02-10T06:05:23;103098.78;;;3.11;66.66
48244;BME280;34053;51.088;6.572;2023-02-10T06:07:53;103100.44;;;3.09;66.49
48244;BME280;34053;51.088;6.572;2023-02-10T06:10:25;103097.00;;;3.10;66.38
48244;BME280;34053;51.088;6.572;2023-02-10T06:12:56;103096.84;;;3.06;66.61
48244;BME280;34053;51.088;6.572;2023-02-10T06:15:26;103088.16;;;3.05;66.28
48244;BME280;34053;51.088;6.572;2023-02-10T06:17:57;103100.03;;;3.00;66.28
48244;BME280;34053;51.088;6.572;2023-02-10T06:20:27;103094.84;;;3.00;66.30
48244;BME280;34053;51.088;6.572;2023-02-10T06:22:58;103104.22;;;2.96;66.58
48244;BME280;34053;51.088;6.572;2023-02-10T06:25:28;103107.53;;;2.94;66.42
48244;BME280;34053;51.088;6.572;2023-02-10T06:27:59;103112.66;;;2.92;66.27
48244;BME280;34053;51.088;6.572;2023-02-10T06:30:30;103112.63;;;2.91;66.36
48244;BME280;34053;51.088;6.572;2023-02-10T06:33:00;103116.84;;;2.89;66.62
48244;BME280;34053;51.088;6.572;2023-02-10T06:35:31;103116.78;;;2.87;66.35
48244;BME280;34053;51.088;6.572;2023-02-10T06:38:01;103114.19;;;2.87;66.11
48244;BME280;34053;51.088;6.572;2023-02-10T06:40:32;103127.78;;;2.81;66.19
48244;BME280;34053;51.088;6.572;2023-02-10T06:43:02;103131.88;;;2.76;66.58
48244;BME280;34053;51.088;6.572;2023-02-10T06:45:33;103130.91;;;2.74;66.39
48244;BME280;34053;51.088;6.572;2023-02-10T06:48:05;103135.28;;;2.75;66.54
48244;BME280;34053;51.088;6.572;2023-02-10T06:50:35;103136.22;;;2.77;66.13
48244;BME280;34053;51.088;6.572;2023-02-10T06:53:08;103144.63;;;2.72;66.76
48244;BME280;34053;51.088;6.572;2023-02-10T06:55:39;103140.31;;;2.72;66.11
48244;BME280;34053;51.088;6.572;2023-02-10T06:58:09;103144.75;;;2.75;65.90
48244;BME280;34053;51.088;6.572;2023-02-10T07:00:40;103145.38;;;2.69;66.50
48244;BME280;34053;51.088;6.572;2023-02-10T07:03:13;103139.50;;;2.73;65.99
48244;BME280;34053;51.088;6.572;2023-02-10T07:05:44;103136.72;;;2.68;66.39
48244;BME280;34053;51.088;6.572;2023-02-10T07:08:14;103138.28;;;2.65;66.10
48244;BME280;34053;51.088;6.572;2023-02-10T07:10:47;103137.47;;;2.66;66.14
48244;BME280;34053;51.088;6.572;2023-02-10T07:13:17;103134.94;;;2.67;66.07
48244;BME280;34053;51.088;6.572;2023-02-10T07:15:48;103133.91;;;2.64;65.83
48244;BME280;34053;51.088;6.572;2023-02-10T07:18:19;103138.94;;;2.61;66.22
48244;BME280;34053;51.088;6.572;2023-02-10T07:20:49;103135.47;;;2.60;66.62
48244;BME280;34053;51.088;6.572;2023-02-10T07:23:19;103137.06;;;2.57;66.92
48244;BME280;34053;51.088;6.572;2023-02-10T07:25:50;103139.66;;;2.57;66.28
48244;BME280;34053;51.088;6.572;2023-02-10T07:28:20;103133.28;;;2.50;66.75
48244;BME280;34053;51.088;6.572;2023-02-10T07:30:51;103130.91;;;2.55;67.20
48244;BME280;34053;51.088;6.572;2023-02-10T07:33:21;103124.69;;;2.51;66.28
48244;BME280;34053;51.088;6.572;2023-02-10T07:35:52;103135.88;;;2.50;66.32
48244;BME280;34053;51.088;6.572;2023-02-10T07:38:23;103136.78;;;2.50;66.52
48244;BME280;34053;51.088;6.572;2023-02-10T07:40:53;103133.88;;;2.44;67.38
48244;BME280;34053;51.088;6.572;2023-02-10T07:43:24;103138.19;;;2.44;67.25
48244;BME280;34053;51.088;6.572;2023-02-10T07:45:54;103142.50;;;2.43;66.93
48244;BME280;34053;51.088;6.572;2023-02-10T07:48:25;103147.53;;;2.40;67.77
48244;BME280;34053;51.088;6.572;2023-02-10T07:50:56;103145.16;;;2.45;67.77
48244;BME280;34053;51.088;6.572;2023-02-10T07:53:27;103146.03;;;2.45;67.31
48244;BME280;34053;51.088;6.572;2023-02-10T07:55:58;103147.81;;;2.46;67.37
48244;BME280;34053;51.088;6.572;2023-02-10T07:58:29;103149.44;;;2.44;67.63
48244;BME280;34053;51.088;6.572;2023-02-10T08:01:05;103149.59;;;2.47;67.81
48244;BME280;34053;51.088;6.572;2023-02-10T08:03:37;103147.06;;;2.49;67.39
48244;BME280;34053;51.088;6.572;2023-02-10T08:06:07;103155.84;;;2.52;67.84
48244;BME280;34053;51.088;6.572;2023-02-10T08:08:38;103154.16;;;2.53;67.79
48244;BME280;34053;51.088;6.572;2023-02-10T08:11:08;103149.84;;;2.54;67.51
48244;BME280;34053;51.088;6.572;2023-02-10T08:13:39;103155.03;;;2.54;67.70
48244;BME280;34053;51.088;6.572;2023-02-10T08:16:09;103155.69;;;2.48;68.30
48244;BME280;34053;51.088;6.572;2023-02-10T08:18:41;103147.97;;;2.49;68.33
48244;BME280;34053;51.088;6.572;2023-02-10T08:21:12;103154.78;;;2.47;69.05
48244;BME280;34053;51.088;6.572;2023-02-10T08:23:42;103166.22;;;2.52;68.36
48244;BME280;34053;51.088;6.572;2023-02-10T08:26:13;103173.28;;;2.55;68.24
48244;BME280;34053;51.088;6.572;2023-02-10T08:28:43;103176.09;;;2.60;68.16
48244;BME280;34053;51.088;6.572;2023-02-10T08:31:14;103168.09;;;2.55;69.64
48244;BME280;34053;51.088;6.572;2023-02-10T08:33:45;103169.94;;;2.58;69.56
48244;BME280;34053;51.088;6.572;2023-02-10T08:36:17;103177.91;;;2.62;70.27
48244;BME280;34053;51.088;6.572;2023-02-10T08:38:49;103180.19;;;2.74;71.38
48244;BME280;34053;51.088;6.572;2023-02-10T08:41:21;103170.47;;;2.70;72.15
48244;BME280;34053;51.088;6.572;2023-02-10T08:43:51;103172.03;;;2.66;74.18
48244;BME280;34053;51.088;6.572;2023-02-10T08:46:22;103164.75;;;2.77;72.69
48244;BME280;34053;51.088;6.572;2023-02-10T08:48:53;103170.88;;;2.79;72.58
48244;BME280;34053;51.088;6.572;2023-02-10T08:51:23;103175.25;;;2.80;75.03
48244;BME280;34053;51.088;6.572;2023-02-10T08:53:54;103176.81;;;2.77;77.36
48244;BME280;34053;51.088;6.572;2023-02-10T08:56:26;103172.72;;;2.82;77.65
48244;BME280;34053;51.088;6.572;2023-02-10T08:58:57;103165.16;;;2.87;78.22
48244;BME280;34053;51.088;6.572;2023-02-10T09:01:27;103167.19;;;2.94;77.95
48244;BME280;34053;51.088;6.572;2023-02-10T09:03:58;103164.88;;;3.00;78.13
48244;BME280;34053;51.088;6.572;2023-02-10T09:06:31;103161.59;;;3.04;77.85
48244;BME280;34053;51.088;6.572;2023-02-10T09:09:05;103163.63;;;3.11;78.43
48244;BME280;34053;51.088;6.572;2023-02-10T09:11:36;103167.25;;;3.15;78.52
48244;BME280;34053;51.088;6.572;2023-02-10T09:14:07;103166.75;;;3.24;77.81
48244;BME280;34053;51.088;6.572;2023-02-10T09:16:38;103172.97;;;3.27;78.32
48244;BME280;34053;51.088;6.572;2023-02-10T09:19:09;103173.03;;;3.29;78.19
48244;BME280;34053;51.088;6.572;2023-02-10T09:21:39;103173.38;;;3.37;78.81
48244;BME280;34053;51.088;6.572;2023-02-10T09:24:10;103180.34;;;3.38;78.67
48244;BME280;34053;51.088;6.572;2023-02-10T09:26:40;103180.63;;;3.45;78.02
48244;BME280;34053;51.088;6.572;2023-02-10T09:29:13;103178.94;;;3.46;79.32
48244;BME280;34053;51.088;6.572;2023-02-10T09:31:44;103174.63;;;3.46;78.91
48244;BME280;34053;51.088;6.572;2023-02-10T09:34:14;103183.56;;;3.53;78.89
48244;BME280;34053;51.088;6.572;2023-02-10T09:36:45;103177.59;;;3.56;79.08
48244;BME280;34053;51.088;6.572;2023-02-10T09:39:15;103187.41;;;3.63;78.83
48244;BME280;34053;51.088;6.572;2023-02-10T09:44:38;103180.69;;;3.68;79.38
48244;BME280;34053;51.088;6.572;2023-02-10T09:47:26;103184.25;;;3.70;79.69
48244;BME280;34053;51.088;6.572;2023-02-10T09:50:11;103188.94;;;3.79;79.88
48244;BME280;34053;51.088;6.572;2023-02-10T09:55:31;103190.16;;;3.87;79.14
48244;BME280;34053;51.088;6.572;2023-02-10T10:00:44;103198.03;;;3.90;79.21
48244;BME280;34053;51.088;6.572;2023-02-10T10:03:18;103190.44;;;3.95;78.79
48244;BME280;34053;51.088;6.572;2023-02-10T10:11:37;103181.06;;;3.99;79.23
48244;BME280;34053;51.088;6.572;2023-02-10T10:22:56;103207.72;;;4.16;79.80
48244;BME280;34053;51.088;6.572;2023-02-10T10:31:14;103211.00;;;4.12;79.72
48244;BME280;34053;51.088;6.572;2023-02-10T10:33:52;103206.06;;;4.18;80.04
48244;BME280;34053;51.088;6.572;2023-02-10T10:36:32;103208.91;;;4.24;79.58
48244;BME280;34053;51.088;6.572;2023-02-10T10:39:34;103203.00;;;4.28;79.89
48244;BME280;34053;51.088;6.572;2023-02-10T10:42:21;103210.91;;;4.31;79.13
48244;BME280;34053;51.088;6.572;2023-02-10T10:44:58;103211.38;;;4.44;79.52
48244;BME280;34053;51.088;6.572;2023-02-10T10:47:40;103201.72;;;4.39;79.63
48244;BME280;34053;51.088;6.572;2023-02-10T10:50:16;103205.31;;;4.43;79.39
48244;BME280;34053;51.088;6.572;2023-02-10T10:52:51;103199.34;;;4.46;78.90
48244;BME280;34053;51.088;6.572;2023-02-10T10:55:27;103201.34;;;4.53;79.63
48244;BME280;34053;51.088;6.572;2023-02-10T10:58:03;103206.72;;;4.57;79.21
48244;BME280;34053;51.088;6.572;2023-02-10T11:00:50;103200.63;;;4.57;78.51
48244;BME280;34053;51.088;6.572;2023-02-10T11:03:21;103192.28;;;4.66;78.33
48244;BME280;34053;51.088;6.572;2023-02-10T11:06:15;103186.09;;;4.62;78.44
48244;BME280;34053;51.088;6.572;2023-02-10T11:09:02;103187.09;;;4.66;77.93
48244;BME280;34053;51.088;6.572;2023-02-10T11:11:39;103196.72;;;4.68;77.92
48244;BME280;34053;51.088;6.572;2023-02-10T11:14:27;103189.97;;;4.73;77.40
48244;BME280;34053;51.088;6.572;2023-02-10T11:16:59;103182.22;;;4.75;77.29
48244;BME280;34053;51.088;6.572;2023-02-10T11:19:34;103184.13;;;4.79;77.91
48244;BME280;34053;51.088;6.572;2023-02-10T11:22:13;103174.81;;;4.86;77.29
48244;BME280;34053;51.088;6.572;2023-02-10T11:24:50;103178.84;;;5.02;76.50
48244;BME280;34053;51.088;6.572;2023-02-10T11:27:22;103173.81;;;5.07;76.99
48244;BME280;34053;51.088;6.572;2023-02-10T11:29:55;103175.59;;;5.08;76.17
48244;BME280;34053;51.088;6.572;2023-02-10T11:32:30;103163.63;;;5.13;75.65
48244;BME280;34053;51.088;6.572;2023-02-10T11:35:04;103163.72;;;5.16;75.34
48244;BME280;34053;51.088;6.572;2023-02-10T11:37:38;103159.75;;;5.27;75.50
48244;BME280;34053;51.088;6.572;2023-02-10T11:40:25;103160.97;;;5.37;74.43
48244;BME280;34053;51.088;6.572;2023-02-10T11:42:58;103161.34;;;5.48;74.37
48244;BME280;34053;51.088;6.572;2023-02-10T11:45:31;103160.44;;;5.47;74.54
48244;BME280;34053;51.088;6.572;2023-02-10T11:48:15;103158.25;;;5.60;74.44
48244;BME280;34053;51.088;6.572;2023-02-10T11:50:47;103162.41;;;5.55;73.45
48244;BME280;34053;51.088;6.572;2023-02-10T11:53:27;103150.50;;;5.63;73.43
48244;BME280;34053;51.088;6.572;2023-02-10T11:56:01;103148.16;;;5.71;72.86
48244;BME280;34053;51.088;6.572;2023-02-10T12:01:55;103151.25;;;5.86;72.81
48244;BME280;34053;51.088;6.572;2023-02-10T12:07:20;103136.97;;;6.01;72.36
48244;BME280;34053;51.088;6.572;2023-02-10T12:10:08;103134.59;;;6.08;72.05
48244;BME280;34053;51.088;6.572;2023-02-10T12:13:01;103123.38;;;6.11;72.19
48244;BME280;34053;51.088;6.572;2023-02-10T12:49:30;103070.75;;;7.23;64.97
48244;BME280;34053;51.088;6.572;2023-02-10T12:55:11;103060.19;;;7.17;63.27
48244;BME280;34053;51.088;6.572;2023-02-10T12:57:52;103056.09;;;7.27;62.00
48244;BME280;34053;51.088;6.572;2023-02-10T13:00:35;103056.94;;;7.28;62.01
48244;BME280;34053;51.088;6.572;2023-02-10T13:03:19;103054.44;;;7.32;61.80
48244;BME280;34053;51.088;6.572;2023-02-10T13:06:02;103053.63;;;7.35;61.30
48244;BME280;34053;51.088;6.572;2023-02-10T13:09:05;103047.53;;;7.34;60.47
48244;BME280;34053;51.088;6.572;2023-02-10T13:11:40;103046.59;;;7.31;61.57
48244;BME280;34053;51.088;6.572;2023-02-10T13:14:18;103047.56;;;7.36;60.93
48244;BME280;34053;51.088;6.572;2023-02-10T13:16:53;103046.69;;;7.35;60.19
48244;BME280;34053;51.088;6.572;2023-02-10T13:22:07;103047.84;;;7.48;60.04
48244;BME280;34053;51.088;6.572;2023-02-10T13:24:43;103049.66;;;7.51;60.01
48244;BME280;34053;51.088;6.572;2023-02-10T13:35:18;103045.78;;;7.73;59.16
48244;BME280;34053;51.088;6.572;2023-02-10T13:37:52;103045.75;;;7.70;59.11
48244;BME280;34053;51.088;6.572;2023-02-10T13:40:34;103042.31;;;7.72;58.99
48244;BME280;34053;51.088;6.572;2023-02-10T13:43:33;103035.50;;;7.79;59.46
48244;BME280;34053;51.088;6.572;2023-02-10T13:46:19;103038.03;;;7.76;59.53
48244;BME280;34053;51.088;6.572;2023-02-10T13:48:53;103028.50;;;7.78;59.13
48244;BME280;34053;51.088;6.572;2023-02-10T13:51:31;103028.63;;;7.84;59.98
48244;BME280;34053;51.088;6.572;2023-02-10T13:54:03;103028.81;;;7.94;59.28
48244;BME280;34053;51.088;6.572;2023-02-10T13:56:34;103033.25;;;7.98;58.69
48244;BME280;34053;51.088;6.572;2023-02-10T13:59:24;103028.00;;;7.96;59.05
48244;BME280;34053;51.088;6.572;2023-02-10T14:04:38;103024.50;;;7.96;58.77
48244;BME280;34053;51.088;6.572;2023-02-10T14:12:54;103009.91;;;8.07;58.93
48244;BME280;34053;51.088;6.572;2023-02-10T14:15:39;103010.69;;;8.01;59.80
48244;BME280;34053;51.088;6.572;2023-02-10T14:18:25;103013.25;;;8.00;59.16
48244;BME280;34053;51.088;6.572;2023-02-10T14:21:00;103019.31;;;7.99;59.09
48244;BME280;34053;51.088;6.572;2023-02-10T14:23:48;103017.72;;;8.06;59.86
48244;BME280;34053;51.088;6.572;2023-02-10T14:26:41;103013.50;;;8.12;59.15
48244;BME280;34053;51.088;6.572;2023-02-10T14:29:15;103004.81;;;8.13;59.58
48244;BME280;34053;51.088;6.572;2023-02-10T14:31:52;103009.41;;;8.25;59.15
48244;BME280;34053;51.088;6.572;2023-02-10T14:34:32;103009.34;;;8.24;58.76
48244;BME280;34053;51.088;6.572;2023-02-10T14:37:20;103015.50;;;8.26;58.80
48244;BME280;34053;51.088;6.572;2023-02-10T14:40:00;103005.97;;;8.28;58.56
48244;BME280;34053;51.088;6.572;2023-02-10T14:42:31;103008.59;;;8.29;58.76
48244;BME280;34053;51.088;6.572;2023-02-10T14:45:05;103011.97;;;8.24;58.97
48244;BME280;34053;51.088;6.572;2023-02-10T14:47:37;103010.16;;;8.19;59.12
48244;BME280;34053;51.088;6.572;2023-02-10T14:50:31;103006.53;;;8.11;58.62
48244;BME280;34053;51.088;6.572;2023-02-10T14:53:05;103001.31;;;8.13;59.64
48244;BME280;34053;51.088;6.572;2023-02-10T14:55:43;103008.22;;;8.09;59.79
48244;BME280;34053;51.088;6.572;2023-02-10T14:58:19;103002.88;;;8.03;59.66
48244;BME280;34053;51.088;6.572;2023-02-10T15:00:56;103000.34;;;8.08;59.67
48244;BME280;34053;51.088;6.572;2023-02-10T15:03:27;103002.75;;;7.97;60.19
48244;BME280;34053;51.088;6.572;2023-02-10T15:05:58;102998.38;;;7.97;59.49
48244;BME280;34053;51.088;6.572;2023-02-10T15:08:34;102995.06;;;8.06;59.71
48244;BME280;34053;51.088;6.572;2023-02-10T15:11:16;102995.03;;;8.04;59.35
48244;BME280;34053;51.088;6.572;2023-02-10T15:14:26;102994.03;;;7.98;59.22
48244;BME280;34053;51.088;6.572;2023-02-10T15:17:03;102994.03;;;7.98;59.27
48244;BME280;34053;51.088;6.572;2023-02-10T15:19:35;103001.03;;;7.99;59.70